createdAt,value
2022-12-03T00:06:57.221Z,43.20
2022-12-03T00:25:42.254Z,37.70
2022-12-03T00:28:11.284Z,36.10
2022-12-03T00:38:47.271Z,45.88
2022-12-03T00:49:21.168Z,38.30
2022-12-03T01:10:42.103Z,42.22
2022-12-03T02:28:34.019Z,34.88
2022-12-03T02:31:09.415Z,38.33
2022-12-03T02:52:52.522Z,33.58
2022-12-03T02:55:21.442Z,41.80
2022-12-03T03:14:07.713Z,29.48
2022-12-03T03:19:19.031Z,36.35
2022-12-03T03:24:32.248Z,47.05
2022-12-03T03:29:41.170Z,32.50
2022-12-03T03:34:56.865Z,36.13
2022-12-03T03:42:51.728Z,13.93
2022-12-03T03:48:04.453Z,22.00
2022-12-03T03:50:33.134Z,37.72
2022-12-03T03:53:04.556Z,41.28
2022-12-03T03:55:38.318Z,35.65
2022-12-03T04:04:12.295Z,19.05
2022-12-03T04:06:39.988Z,23.38
2022-12-03T04:22:56.031Z,24.35
2022-12-03T04:37:33.169Z,39.63
2022-12-03T04:48:05.313Z,34.60
2022-12-03T05:26:15.000Z,27.15
2022-12-03T05:34:07.193Z,32.35
2022-12-03T05:36:37.119Z,42.65
2022-12-03T05:39:10.519Z,37.88
2022-12-03T06:36:18.827Z,44.53
2022-12-03T06:44:23.946Z,43.58
2022-12-03T06:52:26.175Z,48.20
2022-12-03T07:19:00.592Z,45.80
2022-12-03T07:21:40.342Z,42.95
2022-12-03T07:29:31.024Z,47.85
2022-12-03T07:31:59.887Z,46.70
2022-12-03T07:34:29.745Z,39.90
2022-12-03T07:45:22.460Z,50.22
2022-12-03T07:48:00.142Z,42.35
2022-12-03T08:37:52.505Z,23.70
2022-12-03T09:28:06.118Z,41.67
2022-12-03T09:41:53.116Z,47.85
2022-12-03T10:12:33.429Z,38.08
2022-12-03T10:27:35.055Z,18.42
2022-12-03T11:02:44.424Z,43.45
2022-12-03T11:21:20.905Z,49.67
2022-12-03T11:44:52.578Z,47.97
2022-12-03T12:51:58.635Z,43.25
2022-12-03T14:29:19.072Z,21.63
2022-12-03T14:45:31.046Z,29.33
2022-12-03T14:47:58.354Z,26.27
2022-12-03T14:50:26.101Z,21.27
2022-12-03T14:52:53.233Z,32.72
2022-12-03T14:55:21.791Z,18.45
2022-12-03T14:57:48.984Z,30.23
2022-12-03T15:02:43.746Z,20.40
2022-12-03T15:05:11.339Z,29.55
2022-12-03T15:07:39.556Z,27.38
2022-12-03T15:10:08.256Z,18.80
2022-12-03T15:12:35.458Z,28.75
2022-12-03T15:17:32.215Z,20.52
2022-12-03T15:20:00.292Z,31.52
2022-12-03T15:22:27.389Z,23.52
2022-12-03T15:24:54.688Z,29.58
2022-12-03T15:29:49.965Z,30.50
2022-12-03T15:34:45.715Z,24.52
2022-12-03T15:37:13.494Z,17.35
2022-12-03T15:39:46.693Z,25.95
2022-12-03T15:42:34.511Z,32.10
2022-12-03T15:47:43.177Z,18.20
2022-12-03T15:50:11.744Z,35.70
2022-12-03T15:52:40.208Z,39.30
2022-12-03T16:03:16.486Z,19.25
2022-12-03T16:05:49.899Z,31.00
2022-12-03T16:08:17.472Z,23.15
2022-12-03T16:10:45.013Z,25.13
2022-12-03T16:13:12.466Z,21.45
2022-12-03T16:15:39.601Z,24.45
2022-12-03T16:20:33.619Z,20.48
2022-12-03T16:25:27.804Z,21.40
2022-12-03T16:27:57.310Z,19.15
2022-12-03T16:32:52.231Z,18.40
2022-12-03T16:35:19.615Z,21.17
2022-12-03T16:37:46.639Z,23.55
2022-12-03T16:40:13.950Z,17.23
2022-12-03T16:42:41.581Z,12.85
2022-12-03T16:45:09.223Z,18.17
2022-12-03T16:47:37.195Z,18.83
2022-12-03T16:50:08.113Z,11.98
2022-12-03T16:52:35.965Z,18.30
2022-12-03T16:55:03.504Z,11.63
2022-12-03T16:57:33.937Z,22.67
2022-12-03T17:00:01.487Z,19.13
2022-12-03T17:02:34.046Z,13.18
2022-12-03T17:05:01.155Z,21.08
2022-12-03T17:09:55.643Z,24.83
2022-12-03T17:12:23.130Z,13.57
2022-12-03T17:14:50.202Z,21.40
2022-12-03T17:17:18.220Z,23.17
2022-12-03T17:22:14.931Z,19.60
2022-12-03T17:24:43.597Z,17.42
2022-12-03T17:29:39.539Z,24.45
2022-12-03T17:32:10.554Z,22.48
2022-12-03T17:34:37.771Z,16.10
2022-12-03T17:39:32.002Z,8.27
2022-12-03T17:44:26.177Z,9.75
2022-12-03T17:46:54.235Z,15.60
2022-12-03T17:49:25.780Z,16.52
2022-12-03T17:51:57.273Z,15.15
2022-12-03T17:54:30.415Z,18.17
2022-12-03T17:57:05.512Z,8.65
2022-12-03T17:59:32.807Z,15.35
2022-12-03T18:02:00.154Z,8.25
2022-12-03T18:04:27.436Z,19.00
2022-12-03T18:06:59.031Z,12.25
2022-12-03T18:09:29.400Z,19.75
2022-12-03T18:11:56.574Z,19.73
2022-12-03T18:16:50.819Z,19.35
2022-12-03T18:19:18.046Z,18.25
2022-12-03T18:21:45.113Z,14.15
2022-12-03T18:26:39.219Z,16.98
2022-12-03T18:29:06.814Z,22.45
2022-12-03T18:31:34.006Z,10.57
2022-12-03T18:34:01.112Z,11.90
2022-12-03T18:38:59.381Z,18.10
2022-12-03T18:41:27.438Z,20.88
2022-12-03T18:43:54.741Z,17.23
2022-12-03T18:49:09.706Z,25.13
2022-12-03T18:51:37.830Z,17.17
2022-12-03T18:54:10.033Z,24.48
2022-12-03T18:56:38.541Z,20.90
2022-12-03T19:01:35.560Z,20.17
2022-12-03T19:04:03.391Z,17.58
2022-12-03T19:06:30.745Z,23.27
2022-12-03T19:08:58.051Z,17.63
2022-12-03T19:11:25.613Z,22.23
2022-12-03T19:13:52.842Z,16.58
2022-12-03T19:16:20.353Z,18.58
2022-12-03T19:18:48.664Z,17.23
2022-12-03T19:21:16.863Z,24.42
2022-12-03T19:24:04.241Z,25.02
2022-12-03T19:26:31.549Z,23.40
2022-12-03T19:31:25.656Z,21.67
2022-12-03T19:33:54.460Z,23.88
2022-12-03T19:36:32.628Z,19.02
2022-12-03T19:39:01.481Z,21.83
2022-12-03T19:41:30.819Z,22.55
2022-12-03T19:43:58.899Z,13.82
2022-12-03T19:46:31.463Z,19.48
2022-12-03T19:48:58.973Z,14.93
2022-12-03T19:51:34.484Z,19.65
2022-12-03T19:54:04.665Z,21.27
2022-12-03T19:56:31.828Z,22.58
2022-12-03T20:01:28.354Z,24.60
2022-12-03T20:03:58.058Z,21.98
2022-12-03T20:06:28.225Z,26.92
2022-12-03T20:09:00.338Z,23.95
2022-12-03T20:11:31.495Z,25.83
2022-12-03T20:14:05.209Z,21.27
2022-12-03T20:16:32.732Z,20.13
2022-12-03T20:19:02.400Z,33.75
2022-12-03T20:21:32.030Z,22.92
2022-12-03T20:23:59.809Z,28.27
2022-12-03T20:26:28.127Z,27.75
2022-12-03T20:28:56.801Z,31.95
2022-12-03T20:31:26.459Z,28.70
2022-12-03T20:33:57.482Z,28.08
2022-12-03T20:36:25.615Z,25.10
2022-12-03T20:38:57.046Z,18.50
2022-12-03T20:41:24.510Z,32.63
2022-12-03T20:43:52.065Z,22.75
2022-12-03T20:46:22.361Z,22.10
2022-12-03T20:48:49.502Z,31.52
2022-12-03T20:53:45.551Z,18.10
2022-12-03T20:56:18.753Z,24.00
2022-12-03T20:58:46.389Z,14.85
2022-12-03T21:01:19.359Z,26.95
2022-12-03T21:03:47.327Z,16.35
2022-12-03T21:06:15.621Z,21.63
2022-12-03T21:08:43.565Z,27.02
2022-12-03T21:11:18.362Z,19.00
2022-12-03T21:13:46.960Z,13.07
2022-12-03T21:16:17.951Z,27.35
2022-12-03T21:18:45.803Z,20.13
2022-12-03T21:21:15.286Z,29.50
2022-12-03T21:23:43.756Z,22.40
2022-12-03T21:26:16.291Z,18.55
2022-12-03T21:28:45.973Z,23.02
2022-12-03T21:31:16.100Z,25.77
2022-12-03T21:33:43.864Z,30.42
2022-12-03T21:36:13.310Z,25.52
2022-12-03T21:38:41.411Z,15.88
2022-12-03T21:41:08.804Z,24.15
2022-12-03T21:43:35.975Z,18.83
2022-12-03T21:47:11.219Z,38.30
2022-12-03T21:48:55.377Z,25.02
2022-12-03T21:51:22.426Z,25.40
2022-12-03T21:53:49.661Z,17.02
2022-12-03T21:58:45.775Z,26.70
2022-12-03T22:01:15.764Z,28.50
2022-12-03T22:03:43.071Z,29.23
2022-12-03T22:06:10.927Z,16.45
2022-12-03T22:08:38.746Z,25.95
2022-12-03T22:11:24.941Z,28.02
2022-12-03T22:13:51.969Z,29.08
2022-12-03T22:18:47.618Z,25.67
2022-12-03T22:21:20.084Z,28.27
2022-12-03T22:23:47.447Z,18.83
2022-12-03T22:26:16.486Z,28.63
2022-12-03T22:28:47.615Z,28.63
2022-12-03T22:31:15.813Z,25.77
2022-12-03T22:33:45.701Z,23.15
2022-12-03T22:36:20.067Z,22.90
2022-12-03T22:38:51.403Z,30.52
2022-12-03T22:41:19.312Z,30.13
2022-12-03T22:43:47.311Z,16.73
2022-12-03T22:46:15.470Z,31.77
2022-12-03T22:48:44.611Z,30.85
2022-12-03T22:51:21.685Z,20.60
2022-12-03T22:53:54.546Z,37.53
2022-12-03T22:56:22.688Z,26.05
2022-12-03T22:58:50.257Z,27.33
2022-12-03T23:01:21.068Z,27.15
2022-12-03T23:03:48.142Z,31.95
2022-12-03T23:06:15.625Z,21.13
2022-12-03T23:08:42.754Z,25.55
2022-12-03T23:13:37.181Z,26.00
2022-12-03T23:16:05.128Z,18.38
2022-12-03T23:18:32.584Z,23.25
2022-12-03T23:21:00.033Z,20.20
2022-12-03T23:23:27.943Z,18.50
2022-12-03T23:26:04.331Z,27.17
2022-12-03T23:28:34.111Z,23.08
2022-12-03T23:31:01.791Z,18.75
2022-12-03T23:33:31.110Z,22.48
2022-12-03T23:36:06.080Z,28.38
2022-12-03T23:38:33.086Z,23.73
2022-12-03T23:43:36.143Z,20.42
2022-12-03T23:46:10.394Z,20.52
2022-12-03T23:48:38.045Z,20.08
2022-12-03T23:51:24.808Z,19.08
2022-12-03T23:53:53.231Z,22.08
2022-12-03T23:56:23.661Z,15.90
2022-12-03T23:58:51.231Z,20.20
